createdAt,value
2022-11-05T00:02:00.141Z,18.10
2022-11-05T00:05:21.645Z,16.85
2022-11-05T00:08:42.773Z,16.08
2022-11-05T00:12:04.081Z,16.45
2022-11-05T00:15:25.416Z,16.53
2022-11-05T00:18:28.258Z,16.30
2022-11-05T00:21:49.289Z,16.13
2022-11-05T00:25:10.573Z,14.67
2022-11-05T00:28:13.201Z,15.20
2022-11-05T00:31:15.921Z,15.85
2022-11-05T00:34:18.370Z,16.17
2022-11-05T00:37:21.151Z,16.75
2022-11-05T00:40:23.983Z,17.30
2022-11-05T00:43:44.908Z,17.50
2022-11-05T00:46:47.536Z,15.87
2022-11-05T00:49:49.844Z,16.50
2022-11-05T00:52:57.727Z,15.27
2022-11-05T00:56:00.697Z,15.77
2022-11-05T00:59:03.061Z,15.60
2022-11-05T01:02:05.831Z,16.35
2022-11-05T01:05:08.938Z,16.20
2022-11-05T01:08:12.576Z,15.27
2022-11-05T01:11:33.275Z,16.60
2022-11-05T01:14:35.909Z,15.32
2022-11-05T01:17:38.713Z,17.50
2022-11-05T01:20:41.386Z,15.55
2022-11-05T01:23:43.866Z,15.35
2022-11-05T01:26:46.500Z,15.17
2022-11-05T01:29:49.160Z,15.70
2022-11-05T01:32:51.920Z,16.30
2022-11-05T01:35:54.326Z,15.27
2022-11-05T01:38:56.916Z,16.00
2022-11-05T01:41:59.549Z,17.50
2022-11-05T01:45:10.754Z,16.15
2022-11-05T01:48:15.526Z,15.83
2022-11-05T01:51:21.929Z,13.85
2022-11-05T01:54:29.596Z,15.85
2022-11-05T01:57:33.021Z,15.37
2022-11-05T02:00:36.413Z,14.95
2022-11-05T02:03:39.980Z,15.93
2022-11-05T02:06:46.192Z,15.38
2022-11-05T02:10:01.182Z,15.63
2022-11-05T02:13:03.833Z,15.00
2022-11-05T02:16:17.344Z,16.27
2022-11-05T02:19:51.966Z,15.53
2022-11-05T02:23:20.477Z,14.80
2022-11-05T02:26:37.702Z,15.15
2022-11-05T02:29:42.992Z,15.93
2022-11-05T02:33:29.016Z,15.18
2022-11-05T02:36:56.632Z,16.13
2022-11-05T02:40:24.417Z,15.30
2022-11-05T02:43:53.038Z,16.20
2022-11-05T02:47:04.404Z,16.15
2022-11-05T02:50:35.190Z,15.55
2022-11-05T02:53:58.894Z,16.20
2022-11-05T02:57:03.067Z,16.05
2022-11-05T03:00:27.294Z,16.05
2022-11-05T03:03:44.823Z,17.67
2022-11-05T03:06:53.006Z,17.42
2022-11-05T03:10:09.954Z,16.85
2022-11-05T03:13:27.254Z,17.38
2022-11-05T03:16:39.527Z,16.77
2022-11-05T03:19:41.905Z,17.33
2022-11-05T03:22:51.522Z,17.75
2022-11-05T03:26:10.494Z,15.60
2022-11-05T03:29:19.802Z,16.33
2022-11-05T03:32:23.968Z,15.45
2022-11-05T03:35:31.735Z,17.10
2022-11-05T03:38:38.985Z,17.52
2022-11-05T03:41:46.821Z,16.05
2022-11-05T03:44:52.663Z,17.25
2022-11-05T03:47:58.847Z,15.60
2022-11-05T03:51:10.553Z,16.85
2022-11-05T03:54:13.460Z,17.63
2022-11-05T03:57:29.565Z,17.40
2022-11-05T04:00:32.541Z,17.73
2022-11-05T04:03:36.656Z,19.77
2022-11-05T04:06:57.665Z,17.63
2022-11-05T04:10:18.827Z,17.73
2022-11-05T04:13:24.141Z,18.20
2022-11-05T04:16:45.292Z,17.30
2022-11-05T04:20:06.189Z,18.17
2022-11-05T04:23:28.175Z,19.50
2022-11-05T04:26:30.661Z,19.05
2022-11-05T04:29:51.977Z,18.87
2022-11-05T04:33:06.284Z,18.98
2022-11-05T04:36:09.108Z,20.08
2022-11-05T04:39:11.496Z,20.27
2022-11-05T04:42:14.004Z,18.92
2022-11-05T04:45:16.616Z,19.33
2022-11-05T04:48:19.224Z,19.77
2022-11-05T04:51:21.782Z,20.95
2022-11-05T04:54:24.110Z,20.60
2022-11-05T04:57:26.746Z,18.67
2022-11-05T05:00:29.241Z,17.23
2022-11-05T05:03:32.000Z,17.90
2022-11-05T05:06:34.547Z,15.85
2022-11-05T05:09:37.124Z,15.83
2022-11-05T05:12:39.789Z,17.70
2022-11-05T05:15:42.119Z,17.10
2022-11-05T05:18:46.394Z,16.58
2022-11-05T05:21:49.116Z,16.40
2022-11-05T05:24:52.924Z,15.75
2022-11-05T05:27:58.832Z,17.23
2022-11-05T05:31:01.487Z,17.50
2022-11-05T05:34:05.520Z,16.67
2022-11-05T05:37:08.269Z,17.10
2022-11-05T05:40:11.303Z,16.50
2022-11-05T05:43:14.076Z,16.63
2022-11-05T05:46:19.102Z,19.95
2022-11-05T05:49:21.625Z,19.10
2022-11-05T05:52:24.173Z,20.35
2022-11-05T05:55:26.494Z,20.13
2022-11-05T05:58:33.364Z,19.15
2022-11-05T06:01:35.902Z,16.77
2022-11-05T06:04:38.678Z,19.05
2022-11-05T06:07:41.492Z,20.23
2022-11-05T06:10:50.547Z,22.00
2022-11-05T06:13:53.271Z,21.75
2022-11-05T06:16:55.650Z,26.35
2022-11-05T06:19:58.474Z,19.33
2022-11-05T06:23:00.901Z,22.42
2022-11-05T06:26:05.342Z,21.17
2022-11-05T06:29:08.591Z,22.73
2022-11-05T06:32:11.269Z,22.33
2022-11-05T06:35:14.032Z,26.67
2022-11-05T06:38:16.861Z,30.70
2022-11-05T06:41:19.551Z,34.60
2022-11-05T06:44:22.481Z,27.92
2022-11-05T06:47:24.852Z,30.35
2022-11-05T06:50:29.754Z,26.55
2022-11-05T06:53:32.543Z,25.35
2022-11-05T06:56:34.887Z,32.47
2022-11-05T06:59:38.973Z,31.88
2022-11-05T07:02:41.325Z,29.97
2022-11-05T07:05:46.366Z,27.38
2022-11-05T07:08:49.097Z,31.27
2022-11-05T07:11:51.647Z,30.87
2022-11-05T07:14:54.630Z,27.45
2022-11-05T07:17:58.846Z,24.38
2022-11-05T07:21:01.632Z,28.15
2022-11-05T07:24:04.454Z,28.75
2022-11-05T07:27:06.808Z,117.28
2022-11-05T07:30:10.645Z,63.05
2022-11-05T07:33:13.824Z,26.80
2022-11-05T07:36:16.971Z,25.35
2022-11-05T07:39:19.804Z,25.83
2022-11-05T07:42:22.479Z,33.97
2022-11-05T07:45:26.318Z,50.10
2022-11-05T07:48:28.756Z,32.17
2022-11-05T07:51:31.523Z,27.10
2022-11-05T07:54:34.136Z,24.08
2022-11-05T07:57:47.419Z,25.08
2022-11-05T08:00:50.070Z,24.67
2022-11-05T08:03:52.569Z,20.80
2022-11-05T08:06:55.260Z,21.27
2022-11-05T08:09:57.734Z,20.80
2022-11-05T08:13:00.415Z,21.13
2022-11-05T08:16:04.227Z,25.83
2022-11-05T08:19:06.729Z,28.88
2022-11-05T08:22:09.033Z,28.05
2022-11-05T08:25:12.780Z,24.92
2022-11-05T08:28:15.305Z,22.10
2022-11-05T08:31:18.130Z,21.70
2022-11-05T08:34:20.472Z,20.47
2022-11-05T08:37:23.492Z,21.50
2022-11-05T08:40:27.107Z,22.13
2022-11-05T08:43:29.532Z,24.43
2022-11-05T08:46:32.072Z,21.92
2022-11-05T08:49:34.434Z,21.25
2022-11-05T08:52:40.354Z,24.45
2022-11-05T08:55:43.935Z,23.65
2022-11-05T08:58:46.544Z,22.40
2022-11-05T09:01:50.576Z,24.65
2022-11-05T09:04:53.037Z,21.90
2022-11-05T09:08:00.761Z,23.75
2022-11-05T09:11:04.045Z,23.65
2022-11-05T09:14:06.394Z,23.17
2022-11-05T09:17:20.538Z,23.05
2022-11-05T09:20:25.524Z,24.40
2022-11-05T09:23:28.046Z,23.10
2022-11-05T09:26:30.702Z,24.63
2022-11-05T09:29:33.025Z,25.48
2022-11-05T09:32:36.153Z,21.75
2022-11-05T09:35:39.926Z,18.50
2022-11-05T09:38:42.534Z,21.08
2022-11-05T09:41:46.891Z,19.30
2022-11-05T09:45:18.652Z,19.83
2022-11-05T09:48:24.974Z,20.20
2022-11-05T09:51:27.353Z,19.50
2022-11-05T09:54:33.212Z,21.40
2022-11-05T09:57:47.998Z,32.20
2022-11-05T10:00:52.858Z,44.38
2022-11-05T10:03:58.263Z,33.60
2022-11-05T10:07:04.304Z,38.80
2022-11-05T10:10:09.091Z,28.80
2022-11-05T10:13:41.236Z,32.95
2022-11-05T10:16:48.945Z,25.03
2022-11-05T10:20:30.477Z,25.50
2022-11-05T10:23:33.676Z,26.17
2022-11-05T10:26:36.356Z,22.60
2022-11-05T10:29:39.230Z,22.50
2022-11-05T10:32:43.716Z,22.90
2022-11-05T10:35:57.587Z,19.13
2022-11-05T10:39:17.546Z,20.50
2022-11-05T10:42:38.686Z,23.30
2022-11-05T10:45:48.955Z,23.98
2022-11-05T10:49:15.235Z,22.23
2022-11-05T10:52:25.058Z,27.50
2022-11-05T10:55:29.270Z,28.67
2022-11-05T10:58:34.807Z,28.55
2022-11-05T11:01:37.825Z,31.27
2022-11-05T11:04:40.598Z,27.23
2022-11-05T11:07:43.405Z,31.05
2022-11-05T11:10:58.826Z,31.70
2022-11-05T11:14:13.297Z,28.50
2022-11-05T11:17:36.072Z,27.90
2022-11-05T11:20:44.298Z,26.47
2022-11-05T11:23:58.343Z,30.30
2022-11-05T11:27:09.390Z,28.52
2022-11-05T11:30:18.330Z,25.92
2022-11-05T11:33:26.359Z,37.25
2022-11-05T11:36:45.257Z,28.23
2022-11-05T11:39:51.981Z,27.00
2022-11-05T11:42:57.793Z,27.07
2022-11-05T11:46:06.059Z,32.10
2022-11-05T11:49:39.138Z,32.70
2022-11-05T11:52:43.068Z,24.63
2022-11-05T11:56:20.312Z,22.17
2022-11-05T11:59:46.902Z,39.25
2022-11-05T12:03:20.355Z,26.83
2022-11-05T12:06:40.229Z,25.63
2022-11-05T12:10:21.985Z,29.25
2022-11-05T12:13:49.918Z,33.70
2022-11-05T12:17:23.460Z,30.50
2022-11-05T12:21:04.806Z,31.02
2022-11-05T12:24:22.240Z,29.83
2022-11-05T12:27:44.226Z,31.53
2022-11-05T12:30:59.027Z,26.42
2022-11-05T12:34:38.264Z,26.58
2022-11-05T12:38:19.034Z,25.30
2022-11-05T12:41:31.494Z,26.27
2022-11-05T12:44:57.261Z,24.77
2022-11-05T12:48:02.978Z,24.98
2022-11-05T12:51:17.257Z,27.37
2022-11-05T12:54:44.289Z,25.77
2022-11-05T12:57:51.634Z,33.72
2022-11-05T13:01:24.977Z,30.93
2022-11-05T13:04:50.733Z,27.73
2022-11-05T13:08:07.651Z,22.73
2022-11-05T13:11:26.273Z,23.80
2022-11-05T13:14:33.478Z,23.73
2022-11-05T13:17:51.625Z,23.67
2022-11-05T13:20:56.556Z,22.77
2022-11-05T13:24:11.024Z,22.87
2022-11-05T13:27:22.445Z,24.02
2022-11-05T13:30:30.369Z,19.92
2022-11-05T13:33:40.396Z,21.57
2022-11-05T13:37:42.369Z,22.00
2022-11-05T13:41:24.086Z,20.05
2022-11-05T13:44:50.359Z,22.20
2022-11-05T13:48:22.210Z,24.65
2022-11-05T13:51:48.917Z,22.73
2022-11-05T13:55:31.353Z,20.50
2022-11-05T13:58:52.018Z,20.13
2022-11-05T14:02:04.526Z,19.40
2022-11-05T14:05:17.323Z,17.38
2022-11-05T14:08:25.406Z,18.07
2022-11-05T14:11:47.747Z,16.27
2022-11-05T14:14:59.167Z,13.63
2022-11-05T14:18:39.359Z,11.73
2022-11-05T14:21:52.968Z,7.15
2022-11-05T14:24:55.420Z,5.65
2022-11-05T14:27:58.306Z,4.95
2022-11-05T14:31:13.361Z,3.63
2022-11-05T14:34:16.479Z,3.63
2022-11-05T14:37:29.813Z,3.65
2022-11-05T14:40:38.050Z,4.50
2022-11-05T14:43:47.369Z,2.75
2022-11-05T14:46:53.679Z,2.30
2022-11-05T14:50:07.739Z,3.30
2022-11-05T14:53:33.696Z,1.80
2022-11-05T14:56:56.478Z,2.50
2022-11-05T15:00:00.877Z,2.10
2022-11-05T15:03:32.890Z,1.80
2022-11-05T15:06:36.910Z,1.30
2022-11-05T15:09:58.204Z,1.55
2022-11-05T15:13:06.053Z,1.20
2022-11-05T15:16:08.961Z,1.52
2022-11-05T15:19:19.989Z,2.15
2022-11-05T15:22:35.769Z,2.80
2022-11-05T15:25:55.049Z,1.20
2022-11-05T15:28:57.632Z,1.13
2022-11-05T15:32:00.449Z,1.60
2022-11-05T15:35:17.573Z,1.40
2022-11-05T15:38:34.046Z,1.00
2022-11-05T15:41:36.673Z,1.38
2022-11-05T15:44:41.431Z,1.47
2022-11-05T15:47:46.514Z,2.30
2022-11-05T15:50:49.986Z,2.80
2022-11-05T15:57:29.035Z,2.13
2022-11-05T16:00:34.521Z,2.38
2022-11-05T16:03:39.281Z,2.40
2022-11-05T16:06:44.900Z,3.57
2022-11-05T16:10:01.821Z,3.58
2022-11-05T16:13:36.659Z,3.50
2022-11-05T16:16:39.020Z,3.50
2022-11-05T16:19:42.512Z,2.25
2022-11-05T16:22:47.095Z,2.00
2022-11-05T16:25:50.599Z,3.05
2022-11-05T16:28:54.245Z,1.75
2022-11-05T16:31:59.010Z,2.20
2022-11-05T16:35:05.237Z,1.80
2022-11-05T16:38:12.169Z,1.40
2022-11-05T16:41:17.180Z,1.65
2022-11-05T16:44:20.086Z,1.20
2022-11-05T16:47:23.260Z,1.40
2022-11-05T16:50:31.313Z,7.00
2022-11-05T16:53:34.345Z,6.05
2022-11-05T16:56:37.364Z,6.68
2022-11-05T16:59:40.254Z,4.82
2022-11-05T17:02:43.334Z,2.35
2022-11-05T17:05:46.643Z,1.70
2022-11-05T17:08:49.615Z,1.60
2022-11-05T17:11:52.866Z,2.30
2022-11-05T17:14:55.896Z,2.30
2022-11-05T17:17:59.551Z,2.60
2022-11-05T17:21:02.435Z,1.80
2022-11-05T17:24:05.880Z,2.88
2022-11-05T17:27:08.768Z,2.75
2022-11-05T17:30:12.419Z,2.53
2022-11-05T17:33:16.444Z,3.13
2022-11-05T17:36:19.446Z,3.58
2022-11-05T17:39:28.726Z,5.83
2022-11-05T17:42:34.390Z,3.80
2022-11-05T17:45:44.828Z,5.40
2022-11-05T17:48:47.911Z,4.20
2022-11-05T17:51:50.763Z,2.78
2022-11-05T17:54:54.058Z,1.60
2022-11-05T17:57:57.247Z,1.80
2022-11-05T18:00:59.993Z,2.40
2022-11-05T18:04:08.717Z,1.63
2022-11-05T18:07:11.843Z,2.72
2022-11-05T18:10:16.312Z,1.40
2022-11-05T18:13:19.484Z,1.92
2022-11-05T18:16:22.298Z,2.13
2022-11-05T18:19:25.404Z,2.40
2022-11-05T18:22:28.377Z,1.83
2022-11-05T18:25:31.730Z,2.30
2022-11-05T18:28:34.689Z,1.98
2022-11-05T18:31:37.759Z,1.67
2022-11-05T18:34:40.714Z,2.58
2022-11-05T18:37:43.620Z,1.73
2022-11-05T18:40:46.585Z,2.73
2022-11-05T18:43:49.655Z,1.55
2022-11-05T18:46:58.253Z,2.13
2022-11-05T18:50:02.352Z,2.77
2022-11-05T18:53:05.372Z,1.85
2022-11-05T18:56:10.488Z,2.13
2022-11-05T19:02:41.945Z,1.77
2022-11-05T19:05:44.772Z,2.10
2022-11-05T19:08:47.971Z,2.95
2022-11-05T19:11:52.244Z,3.47
2022-11-05T19:15:00.921Z,1.92
2022-11-05T19:18:05.978Z,1.42
2022-11-05T19:21:11.351Z,1.40
2022-11-05T19:24:17.403Z,1.33
2022-11-05T19:27:20.559Z,1.40
2022-11-05T19:30:23.452Z,2.88
2022-11-05T19:33:26.440Z,2.05
2022-11-05T19:36:30.206Z,1.60
2022-11-05T19:39:33.233Z,2.45
2022-11-05T19:42:36.435Z,1.73
2022-11-05T19:45:45.056Z,1.75
2022-11-05T19:48:48.420Z,1.73
2022-11-05T19:51:52.133Z,1.40
2022-11-05T19:54:55.319Z,1.70
2022-11-05T19:57:58.594Z,1.30
2022-11-05T20:01:01.783Z,1.60
2022-11-05T20:04:05.877Z,1.50
2022-11-05T20:07:08.867Z,1.48
2022-11-05T20:10:11.629Z,1.20
2022-11-05T20:13:19.602Z,1.00
2022-11-05T20:16:28.554Z,1.70
2022-11-05T20:19:31.357Z,1.38
2022-11-05T20:22:34.520Z,2.13
2022-11-05T20:25:37.494Z,1.50
2022-11-05T20:28:42.763Z,1.60
2022-11-05T20:31:46.527Z,1.55
2022-11-05T20:34:49.255Z,1.45
2022-11-05T20:37:54.141Z,1.90
2022-11-05T20:40:57.306Z,1.85
2022-11-05T20:44:00.435Z,1.50
2022-11-05T20:47:03.303Z,1.55
2022-11-05T20:50:06.900Z,1.40
2022-11-05T20:53:11.431Z,1.30
2022-11-05T20:56:23.478Z,1.40
2022-11-05T20:59:26.517Z,1.52
2022-11-05T21:02:29.515Z,1.52
2022-11-05T21:05:35.657Z,1.50
2022-11-05T21:08:39.257Z,1.67
2022-11-05T21:12:00.588Z,1.27
2022-11-05T21:15:03.667Z,1.33
2022-11-05T21:18:06.646Z,1.50
2022-11-05T21:21:15.645Z,1.30
2022-11-05T21:24:18.501Z,1.20
2022-11-05T21:27:21.313Z,1.45
2022-11-05T21:30:24.415Z,1.42
2022-11-05T21:33:27.706Z,1.40
2022-11-05T21:36:30.497Z,1.10
2022-11-05T21:39:36.433Z,1.55
2022-11-05T21:42:40.764Z,1.52
2022-11-05T21:45:45.266Z,1.30
2022-11-05T21:48:48.224Z,1.20
2022-11-05T21:52:11.252Z,1.20
2022-11-05T21:55:32.745Z,1.07
2022-11-05T21:58:54.225Z,1.25
2022-11-05T22:02:01.720Z,1.25
2022-11-05T22:05:05.716Z,1.40
2022-11-05T22:08:09.506Z,1.20
2022-11-05T22:11:12.306Z,0.80
2022-11-05T22:14:14.860Z,1.65
2022-11-05T22:17:18.362Z,1.27
2022-11-05T22:20:22.721Z,1.30
2022-11-05T22:23:25.368Z,1.40
2022-11-05T22:26:28.341Z,1.37
2022-11-05T22:29:31.763Z,1.92
2022-11-05T22:32:34.491Z,1.23
2022-11-05T22:35:39.379Z,1.40
2022-11-05T22:38:42.060Z,0.65
2022-11-05T22:41:45.123Z,1.73
2022-11-05T22:44:47.743Z,0.93
2022-11-05T22:47:50.569Z,1.27
2022-11-05T22:50:53.440Z,1.00
2022-11-05T22:53:55.863Z,1.20
2022-11-05T22:56:58.329Z,1.30
2022-11-05T23:00:01.002Z,1.60
2022-11-05T23:03:03.876Z,1.40
2022-11-05T23:06:34.175Z,1.63
2022-11-05T23:09:55.460Z,1.48
2022-11-05T23:12:57.994Z,1.52
2022-11-05T23:16:18.640Z,1.33
2022-11-05T23:19:39.746Z,1.10
2022-11-05T23:23:00.892Z,1.60
2022-11-05T23:26:23.240Z,1.33
2022-11-05T23:29:27.016Z,0.90
2022-11-05T23:32:31.058Z,1.13
2022-11-05T23:35:53.350Z,1.40
2022-11-05T23:38:56.617Z,1.27
2022-11-05T23:42:17.588Z,1.08
2022-11-05T23:45:38.939Z,1.52
2022-11-05T23:48:41.242Z,1.48
2022-11-05T23:51:43.876Z,1.30
2022-11-05T23:54:46.796Z,1.02
2022-11-05T23:57:49.470Z,1.25
